Time;durP1;ratioP1;P1;durP2;ratioP2;P2;SDS_P1;SDS_P2;PMS_P1;PMS_P2;Temp;Humidity;BMP_temperature;BMP_pressure;BME280_temperature;BME280_humidity;BME280_pressure;Samples;Min_cycle;Max_cycle;Signal;HPM_P1;HPM_P2
2021/03/12 06:01:53;;;;;;;;;;;;;;;5.32;58.28;96689.65;1699630;78;20694;-63
2021/03/12 06:04:23;;;;;;;;;;;;;;;5.39;57.98;96688.19;1732414;82;33177;-63
2021/03/12 06:06:51;;;;;;;;;;;;;;;5.43;58.68;96697.09;1736744;82;20491;-63
2021/03/12 06:09:22;;;;;;;;;;;;;;;5.45;58.32;96689.33;1739836;81;20483;-64
2021/03/12 06:11:54;;;;;;;;;;;;;;;5.49;58.42;96681.80;1717312;80;20667;-62
2021/03/12 06:14:40;;;;;;;;;;;;;;;5.52;59.40;96683.95;1694173;82;20288;-69
2021/03/12 06:17:40;;;;;;;;;;;;;;;5.61;58.41;96697.38;1875816;75;20613;-67
2021/03/12 06:20:15;;;;;;;;;;;;;;;5.59;58.28;96708.03;1829975;75;20956;-70
2021/03/12 06:22:55;;;;;;;;;;;;;;;5.62;58.69;96707.53;1831136;77;21941;-69
2021/03/12 06:25:30;;;;;;;;;;;;;;;5.61;58.84;96696.86;1827949;75;20581;-71
2021/03/12 06:28:18;;;;;;;;;;;;;;;5.60;59.27;96703.61;1836142;77;20518;-70
2021/03/12 06:31:26;;;;;;;;;;;;;;;5.59;59.60;96707.23;1839897;75;20270;-73
2021/03/12 06:34:12;;;;;;;;;;;;;;;5.57;59.32;96719.70;1837933;77;20489;-69
2021/03/12 06:36:42;;;;;;;;;;;;;;;5.58;59.15;96722.59;1831000;77;21920;-72
2021/03/12 06:39:14;;;;;;;;;;;;;;;5.61;59.03;96739.87;1826947;77;20468;-60
2021/03/12 06:41:45;;;;;;;;;;;;;;;5.63;59.48;96735.70;1829959;77;20551;-65
2021/03/12 06:44:29;;;;;;;;;;;;;;;5.68;59.01;96748.83;1823872;77;20516;-65
2021/03/12 06:46:59;;;;;;;;;;;;;;;5.72;58.80;96755.92;1833979;77;20993;-66
2021/03/12 06:49:28;;;;;;;;;;;;;;;5.79;58.86;96765.67;1839190;75;21873;-65
2021/03/12 06:52:04;;;;;;;;;;;;;;;5.85;58.48;96763.41;1824121;76;20576;-67
2021/03/12 06:54:36;;;;;;;;;;;;;;;5.93;57.78;96753.64;1842300;76;20758;-68
2021/03/12 06:57:19;;;;;;;;;;;;;;;5.99;58.38;96750.07;1833221;76;20477;-64
2021/03/12 07:00:03;;;;;;;;;;;;;;;6.05;58.25;96749.14;1836595;77;20601;-66
2021/03/12 07:02:37;;;;;;;;;;;;;;;6.16;58.52;96754.24;1829536;76;21966;-64
2021/03/12 07:05:08;;;;;;;;;;;;;;;6.30;58.87;96757.80;1827106;76;20632;-64
2021/03/12 07:07:44;;;;;;;;;;;;;;;6.44;58.52;96755.91;1833145;75;20596;-66
2021/03/12 07:10:16;;;;;;;;;;;;;;;6.62;58.48;96767.37;1828592;77;20500;-75
2021/03/12 07:12:52;;;;;;;;;;;;;;;6.80;57.56;96778.52;1820579;77;20480;-67
2021/03/12 07:15:22;;;;;;;;;;;;;;;6.95;57.94;96779.99;1814558;77;21808;-64
2021/03/12 07:17:51;;;;;;;;;;;;;;;7.08;57.33;96793.97;1815687;77;20856;-71
2021/03/12 07:20:23;;;;;;;;;;;;;;;7.22;56.34;96799.59;1830586;76;20385;-70
2021/03/12 07:22:51;;;;;;;;;;;;;;;7.34;55.70;96810.72;1835179;76;20575;-68
2021/03/12 07:25:22;;;;;;;;;;;;;;;7.43;56.42;96818.36;1830469;76;20764;-68
2021/03/12 07:27:52;;;;;;;;;;;;;;;7.47;58.85;96834.36;1829764;77;21628;-66
2021/03/12 07:30:22;;;;;;;;;;;;;;;7.38;60.09;96839.23;1821662;76;20683;-68
2021/03/12 07:32:53;;;;;;;;;;;;;;;7.34;61.44;96850.71;1802662;77;20473;-65
2021/03/12 07:35:24;;;;;;;;;;;;;;;7.27;62.15;96861.88;1826088;77;20463;-66
2021/03/12 07:37:53;;;;;;;;;;;;;;;7.14;62.10;96864.05;1826970;76;20693;-68
2021/03/12 07:40:23;;;;;;;;;;;;;;;7.05;62.02;96861.09;1832574;77;22271;-66
2021/03/12 07:42:54;;;;;;;;;;;;;;;7.02;59.26;96868.11;1802957;77;20554;-64
2021/03/12 07:45:35;;;;;;;;;;;;;;;7.04;57.60;96871.27;1825298;76;20475;-63
2021/03/12 07:48:15;;;;;;;;;;;;;;;7.12;55.64;96866.92;1835378;76;20497;-73
2021/03/12 07:51:09;;;;;;;;;;;;;;;7.18;55.02;96880.32;1758313;79;20621;-73
2021/03/12 07:53:50;;;;;;;;;;;;;;;7.25;55.33;96855.30;1866921;75;20539;-66
2021/03/12 07:56:46;;;;;;;;;;;;;;;7.24;55.02;96866.78;1828360;76;20697;-64
2021/03/12 07:59:22;;;;;;;;;;;;;;;7.27;53.97;96858.47;1841037;76;22337;-66
2021/03/12 08:02:05;;;;;;;;;;;;;;;7.27;54.33;96866.31;1785345;77;20576;-68
2021/03/12 08:04:37;;;;;;;;;;;;;;;7.28;54.65;96863.95;1819252;76;20233;-67
2021/03/12 08:07:21;;;;;;;;;;;;;;;7.30;54.24;96867.11;1850661;76;20237;-68
2021/03/12 08:09:54;;;;;;;;;;;;;;;7.35;54.71;96867.16;1857098;76;21015;-64
2021/03/12 08:12:37;;;;;;;;;;;;;;;7.37;53.96;96863.79;1839528;76;20814;-71
2021/03/12 08:15:25;;;;;;;;;;;;;;;7.39;53.52;96863.03;1815991;76;20687;-70
2021/03/12 08:18:02;;;;;;;;;;;;;;;7.42;53.64;96866.45;1836382;76;20319;-69
2021/03/12 08:20:37;;;;;;;;;;;;;;;7.47;53.31;96874.88;1842277;76;20607;-70
2021/03/12 08:23:34;;;;;;;;;;;;;;;7.49;53.29;96866.28;1837119;76;20966;-64
2021/03/12 08:26:07;;;;;;;;;;;;;;;7.47;53.10;96867.83;1833477;76;20857;-68
2021/03/12 08:28:39;;;;;;;;;;;;;;;7.41;53.49;96864.38;1845362;75;20482;-66
2021/03/12 08:31:09;;;;;;;;;;;;;;;7.38;53.83;96861.45;1833670;76;20551;-74
2021/03/12 08:33:38;;;;;;;;;;;;;;;7.35;54.04;96851.47;1825741;76;20122;-67
2021/03/12 08:36:14;;;;;;;;;;;;;;;7.35;54.50;96850.95;1808105;77;20560;-69
2021/03/12 08:39:01;;;;;;;;;;;;;;;7.34;54.27;96852.02;1835508;77;21904;-67
2021/03/12 08:41:40;;;;;;;;;;;;;;;7.34;54.45;96846.00;1832884;76;20585;-68
2021/03/12 08:44:28;;;;;;;;;;;;;;;7.36;54.72;96853.06;1838958;75;20404;-69
2021/03/12 08:47:18;;;;;;;;;;;;;;;7.38;54.83;96856.22;1844594;76;20786;-69
2021/03/12 08:49:49;;;;;;;;;;;;;;;7.40;55.04;96855.47;1822454;76;20716;-67
2021/03/12 08:52:20;;;;;;;;;;;;;;;7.48;55.16;96855.55;1847048;76;22415;-69
2021/03/12 08:54:52;;;;;;;;;;;;;;;7.58;55.21;96845.17;1840740;75;21054;-70
2021/03/12 08:57:22;;;;;;;;;;;;;;;7.69;55.07;96848.17;1816856;76;20478;-70
2021/03/12 09:00:05;;;;;;;;;;;;;;;7.82;54.74;96863.45;1832316;76;20486;-64
2021/03/12 09:02:51;;;;;;;;;;;;;;;7.95;55.03;96864.86;1831484;76;20784;-70
2021/03/12 09:05:26;;;;;;;;;;;;;;;8.08;56.40;96859.99;1839718;75;21814;-67
2021/03/12 09:08:15;;;;;;;;;;;;;;;8.17;57.48;96853.27;1834492;76;20485;-67
2021/03/12 09:10:46;;;;;;;;;;;;;;;8.19;58.86;96857.73;1841281;77;20482;-67
2021/03/12 09:13:22;;;;;;;;;;;;;;;8.26;59.92;96867.20;1834904;76;20494;-70
2021/03/12 09:15:51;;;;;;;;;;;;;;;8.27;60.23;96864.34;1824989;76;20377;-64
2021/03/12 09:18:23;;;;;;;;;;;;;;;8.20;60.59;96855.40;1832655;76;22161;-64
2021/03/12 09:20:56;;;;;;;;;;;;;;;8.13;61.15;96858.75;1829615;76;21090;-66
2021/03/12 09:23:49;;;;;;;;;;;;;;;8.11;61.19;96856.09;1836360;76;20212;-67
2021/03/12 09:26:31;;;;;;;;;;;;;;;8.14;61.03;96865.53;1805628;78;20310;-68
2021/03/12 09:29:05;;;;;;;;;;;;;;;8.14;61.11;96858.23;1842803;76;20624;-67
2021/03/12 09:31:37;;;;;;;;;;;;;;;8.15;61.27;96856.65;1838112;76;20966;-65
2021/03/12 09:34:10;;;;;;;;;;;;;;;8.21;61.23;96854.33;1828232;76;20456;-71
2021/03/12 09:36:46;;;;;;;;;;;;;;;8.27;61.04;96842.09;1839124;76;20154;-66
2021/03/12 09:39:23;;;;;;;;;;;;;;;8.28;60.37;96843.67;1826240;77;20629;-66
2021/03/12 09:41:54;;;;;;;;;;;;;;;8.34;60.15;96856.30;1827984;76;20624;-70
2021/03/12 09:44:24;;;;;;;;;;;;;;;8.41;60.44;96851.11;1828383;76;21938;-64
2021/03/12 09:46:55;;;;;;;;;;;;;;;8.49;59.84;96859.81;1824247;76;20565;-64
2021/03/12 09:49:31;;;;;;;;;;;;;;;8.55;59.59;96860.63;1839793;76;20605;-66
2021/03/12 09:52:00;;;;;;;;;;;;;;;8.57;59.59;96861.92;1816979;77;20112;-67
2021/03/12 09:54:30;;;;;;;;;;;;;;;8.61;59.37;96857.78;1843490;77;20660;-64
2021/03/12 09:56:58;;;;;;;;;;;;;;;8.66;59.45;96853.08;1837314;76;22040;-67
2021/03/12 09:59:29;;;;;;;;;;;;;;;8.72;59.74;96842.89;1810230;76;20582;-67
2021/03/12 10:02:27;;;;;;;;;;;;;;;8.83;57.55;96839.80;1840903;76;20616;-65
2021/03/12 10:05:04;;;;;;;;;;;;;;;8.93;56.18;96850.34;1778744;78;20458;-60
2021/03/12 10:07:53;;;;;;;;;;;;;;;9.01;56.34;96844.06;1798853;78;20586;-65
2021/03/12 10:10:27;;;;;;;;;;;;;;;9.09;55.89;96852.48;1774707;79;21393;-67
2021/03/12 10:13:00;;;;;;;;;;;;;;;9.14;55.75;96844.13;1776766;80;20474;-67
2021/03/12 10:15:38;;;;;;;;;;;;;;;9.15;54.19;96848.86;1779462;78;20198;-67
2021/03/12 10:18:26;;;;;;;;;;;;;;;9.13;53.92;96839.93;1775373;79;20545;-68
2021/03/12 10:20:56;;;;;;;;;;;;;;;9.14;52.01;96848.59;1783821;79;20802;-67
2021/03/12 10:23:24;;;;;;;;;;;;;;;9.16;52.73;96853.81;1789889;78;21665;-67
2021/03/12 10:25:52;;;;;;;;;;;;;;;9.23;52.20;96859.61;1790594;78;20562;-67
2021/03/12 10:28:20;;;;;;;;;;;;;;;9.29;51.21;96855.95;1785634;78;20476;-67
2021/03/12 10:30:56;;;;;;;;;;;;;;;9.34;51.50;96858.61;1785286;78;20415;-67
2021/03/12 10:33:30;;;;;;;;;;;;;;;9.43;50.92;96862.05;1782229;78;20490;-67
2021/03/12 10:36:02;;;;;;;;;;;;;;;9.48;50.72;96856.28;1788165;78;21781;-68
2021/03/12 10:38:33;;;;;;;;;;;;;;;9.53;50.54;96860.22;1796171;79;20518;-67
2021/03/12 10:41:05;;;;;;;;;;;;;;;9.56;50.44;96864.17;1771208;78;20493;-65
2021/03/12 10:43:35;;;;;;;;;;;;;;;9.58;50.15;96860.77;1768997;79;20496;-66
2021/03/12 10:46:07;;;;;;;;;;;;;;;9.56;49.95;96857.09;1784660;79;20764;-64
2021/03/12 10:48:46;;;;;;;;;;;;;;;9.52;49.84;96856.02;1784216;78;21937;-63
2021/03/12 10:51:16;;;;;;;;;;;;;;;9.54;50.51;96856.55;1785990;78;20620;-65
2021/03/12 10:53:50;;;;;;;;;;;;;;;9.65;49.92;96858.13;1777246;78;20285;-64
2021/03/12 10:56:18;;;;;;;;;;;;;;;9.77;50.47;96853.97;1786952;78;20572;-65
2021/03/12 10:58:50;;;;;;;;;;;;;;;9.94;49.75;96859.73;1782943;78;21100;-68
2021/03/12 11:01:30;;;;;;;;;;;;;;;10.11;48.97;96863.42;1736613;80;21732;-69
2021/03/12 11:04:00;;;;;;;;;;;;;;;10.20;48.72;96851.91;1711518;82;20675;-68
2021/03/12 11:06:37;;;;;;;;;;;;;;;10.27;48.24;96845.86;1714710;81;20503;-64
2021/03/12 11:09:09;;;;;;;;;;;;;;;10.31;48.87;96855.56;1734009;81;20597;-65
2021/03/12 11:11:37;;;;;;;;;;;;;;;10.34;48.25;96858.98;1730958;81;20494;-67
2021/03/12 11:14:07;;;;;;;;;;;;;;;10.34;48.25;96872.12;1728466;81;21881;-73
2021/03/12 11:16:35;;;;;;;;;;;;;;;10.36;47.99;96879.73;1733375;81;20491;-71
2021/03/12 11:19:03;;;;;;;;;;;;;;;10.38;48.14;96890.75;1725347;81;20578;-65
2021/03/12 11:21:33;;;;;;;;;;;;;;;10.37;48.07;96877.38;1732007;81;20393;-64
2021/03/12 11:24:06;;;;;;;;;;;;;;;10.32;47.88;96869.48;1731809;82;20642;-67
2021/03/12 11:26:34;;;;;;;;;;;;;;;10.28;48.63;96860.57;1730232;81;21893;-68
2021/03/12 11:29:02;;;;;;;;;;;;;;;10.24;48.30;96858.98;1724599;81;20825;-76
2021/03/12 11:31:30;;;;;;;;;;;;;;;10.18;48.82;96863.98;1725511;81;20607;-65
2021/03/12 11:33:58;;;;;;;;;;;;;;;10.10;49.13;96861.84;1732357;81;20499;-67
2021/03/12 11:36:26;;;;;;;;;;;;;;;10.04;49.29;96869.47;1730970;81;20616;-70
2021/03/12 11:38:54;;;;;;;;;;;;;;;9.94;49.61;96870.23;1739803;81;21877;-70
2021/03/12 11:41:22;;;;;;;;;;;;;;;9.82;49.96;96874.17;1735519;82;20656;-68
2021/03/12 11:43:51;;;;;;;;;;;;;;;9.66;49.98;96875.97;1735836;81;20494;-64
2021/03/12 11:46:19;;;;;;;;;;;;;;;9.55;50.59;96887.51;1733297;81;20535;-66
2021/03/12 11:48:48;;;;;;;;;;;;;;;9.49;50.95;96879.36;1730206;81;20617;-66
2021/03/12 11:51:16;;;;;;;;;;;;;;;9.43;51.38;96892.20;1724101;81;21170;-68
2021/03/12 11:53:44;;;;;;;;;;;;;;;9.37;50.89;96899.24;1729580;81;20280;-66
2021/03/12 11:56:12;;;;;;;;;;;;;;;9.32;51.42;96907.10;1732056;81;20542;-67
2021/03/12 11:58:42;;;;;;;;;;;;;;;9.24;51.57;96901.03;1732020;82;20479;-65
2021/03/12 12:01:10;;;;;;;;;;;;;;;9.19;51.65;96905.75;1752970;81;20487;-68
2021/03/12 12:03:38;;;;;;;;;;;;;;;9.16;52.20;96894.97;1721357;81;21443;-66
2021/03/12 12:06:07;;;;;;;;;;;;;;;9.17;52.07;96904.41;1727327;82;20618;-66
2021/03/12 12:08:34;;;;;;;;;;;;;;;9.19;52.00;96901.02;1735154;81;20546;-64
2021/03/12 12:11:02;;;;;;;;;;;;;;;9.21;51.84;96904.98;1733934;81;20853;-65
2021/03/12 12:13:31;;;;;;;;;;;;;;;9.25;52.07;96901.30;1732937;81;20662;-68
2021/03/12 12:15:59;;;;;;;;;;;;;;;9.30;51.82;96906.04;1738135;81;22464;-67
2021/03/12 12:18:27;;;;;;;;;;;;;;;9.31;51.65;96910.77;1722733;81;20567;-70
2021/03/12 12:20:56;;;;;;;;;;;;;;;9.32;51.68;96907.89;1731594;81;20689;-68
2021/03/12 12:23:24;;;;;;;;;;;;;;;9.34;51.34;96901.88;1712816;81;20610;-68
2021/03/12 12:25:52;;;;;;;;;;;;;;;9.37;52.06;96900.03;1727927;81;20617;-68
2021/03/12 12:28:21;;;;;;;;;;;;;;;9.42;51.90;96908.46;1736486;81;20798;-66
2021/03/12 12:30:48;;;;;;;;;;;;;;;9.44;51.59;96907.66;1731847;81;20511;-66
2021/03/12 12:33:17;;;;;;;;;;;;;;;9.44;51.77;96914.22;1726760;81;20528;-68
2021/03/12 12:35:45;;;;;;;;;;;;;;;9.43;51.85;96911.88;1722428;81;21053;-71
2021/03/12 12:38:13;;;;;;;;;;;;;;;9.39;51.78;96918.14;1728400;81;20851;-67
2021/03/12 12:40:41;;;;;;;;;;;;;;;9.36;51.92;96919.44;1728436;81;22046;-66
2021/03/12 12:43:09;;;;;;;;;;;;;;;9.33;51.79;96919.96;1737763;81;20403;-67
2021/03/12 12:45:38;;;;;;;;;;;;;;;9.30;51.92;96915.73;1737385;81;20413;-68
2021/03/12 12:48:08;;;;;;;;;;;;;;;9.23;52.21;96914.67;1735471;81;20941;-67
2021/03/12 12:50:37;;;;;;;;;;;;;;;9.17;52.50;96926.70;1727307;81;20603;-67
2021/03/12 12:53:05;;;;;;;;;;;;;;;9.13;52.57;96930.37;1731698;82;22617;-63
2021/03/12 12:55:34;;;;;;;;;;;;;;;9.09;52.67;96935.05;1755548;81;20532;-62
2021/03/12 12:58:03;;;;;;;;;;;;;;;9.11;52.95;96933.76;1754982;80;20496;-65
2021/03/12 13:00:32;;;;;;;;;;;;;;;9.15;52.83;96928.81;1743115;81;20496;-66
2021/03/12 13:03:00;;;;;;;;;;;;;;;9.22;52.67;96940.61;1746103;80;20668;-65
2021/03/12 13:05:28;;;;;;;;;;;;;;;9.26;52.66;96925.97;1718498;82;22157;-65
2021/03/12 13:07:56;;;;;;;;;;;;;;;9.33;52.39;96944.08;1701538;83;20821;-68
2021/03/12 13:10:24;;;;;;;;;;;;;;;9.34;51.87;96940.42;1700110;83;20223;-67
2021/03/12 13:12:52;;;;;;;;;;;;;;;9.31;52.20;96940.39;1688845;83;20437;-70
2021/03/12 13:15:20;;;;;;;;;;;;;;;9.31;52.10;96948.78;1692780;83;21000;-71
2021/03/12 13:17:49;;;;;;;;;;;;;;;9.33;52.26;96962.44;1697570;83;20501;-69
2021/03/12 13:20:19;;;;;;;;;;;;;;;9.36;52.19;96965.32;1719547;81;20807;-69
2021/03/12 13:22:48;;;;;;;;;;;;;;;9.43;52.05;96965.11;1712493;83;20509;-69
2021/03/12 13:25:16;;;;;;;;;;;;;;;9.49;52.07;96968.02;1696579;82;20332;-66
2021/03/12 13:27:44;;;;;;;;;;;;;;;9.56;51.83;96971.72;1694286;83;20985;-68
2021/03/12 13:30:16;;;;;;;;;;;;;;;9.62;51.38;96974.62;1683016;84;21899;-70
2021/03/12 13:32:44;;;;;;;;;;;;;;;9.65;51.32;96983.30;1686525;83;20565;-70
2021/03/12 13:35:15;;;;;;;;;;;;;;;9.69;51.33;96979.89;1695634;83;20491;-70
2021/03/12 13:37:44;;;;;;;;;;;;;;;9.73;51.31;96980.16;1694150;83;20418;-64
2021/03/12 13:40:15;;;;;;;;;;;;;;;9.84;51.29;96980.98;1699773;83;20590;-64
2021/03/12 13:42:43;;;;;;;;;;;;;;;9.98;51.57;96986.80;1699547;83;21876;-70
2021/03/12 13:45:11;;;;;;;;;;;;;;;10.15;50.59;96991.83;1699769;83;20571;-68
2021/03/12 13:47:41;;;;;;;;;;;;;;;10.28;50.62;97014.20;1727864;81;20561;-68
2021/03/12 13:50:11;;;;;;;;;;;;;;;10.43;50.57;97041.28;1724800;81;20429;-69
2021/03/12 13:52:39;;;;;;;;;;;;;;;10.55;50.09;97038.39;1728892;81;20489;-71
2021/03/12 13:55:09;;;;;;;;;;;;;;;10.57;49.83;97040.25;1714995;82;22319;-69
2021/03/12 13:57:38;;;;;;;;;;;;;;;10.51;49.86;97037.35;1704558;83;20719;-67
